sensor_id;sensor_type;location;lat;lon;timestamp;pressure;altitude;pressure_sealevel;temperature;humidity
17230;BME280;8731;50.364;8.958;2023-05-15T00:03:03;99759.81;;;12.35;84.07
17230;BME280;8731;50.364;8.958;2023-05-15T00:07:26;99747.72;;;12.22;86.42
17230;BME280;8731;50.364;8.958;2023-05-15T00:11:50;99749.63;;;12.24;85.42
17230;BME280;8731;50.364;8.958;2023-05-15T00:16:12;99752.47;;;12.17;85.24
17230;BME280;8731;50.364;8.958;2023-05-15T00:20:35;99741.97;;;12.24;84.52
17230;BME280;8731;50.364;8.958;2023-05-15T00:24:58;99747.50;;;11.66;88.50
17230;BME280;8731;50.364;8.958;2023-05-15T00:29:22;99744.69;;;11.63;90.41
17230;BME280;8731;50.364;8.958;2023-05-15T00:33:44;99738.38;;;11.38;91.16
17230;BME280;8731;50.364;8.958;2023-05-15T00:38:07;99726.19;;;11.66;87.97
17230;BME280;8731;50.364;8.958;2023-05-15T00:42:30;99742.22;;;11.75;86.14
17230;BME280;8731;50.364;8.958;2023-05-15T00:46:56;99736.81;;;11.60;88.08
17230;BME280;8731;50.364;8.958;2023-05-15T00:51:19;99733.84;;;11.56;88.34
17230;BME280;8731;50.364;8.958;2023-05-15T00:55:44;99740.53;;;11.23;91.35
17230;BME280;8731;50.364;8.958;2023-05-15T01:00:08;99732.47;;;11.49;87.97
17230;BME280;8731;50.364;8.958;2023-05-15T01:04:32;99722.53;;;11.52;87.02
17230;BME280;8731;50.364;8.958;2023-05-15T01:08:55;99722.69;;;11.23;89.47
17230;BME280;8731;50.364;8.958;2023-05-15T01:13:23;99728.31;;;10.99;91.19
17230;BME280;8731;50.364;8.958;2023-05-15T01:17:46;99728.81;;;10.95;91.83
17230;BME280;8731;50.364;8.958;2023-05-15T01:22:32;99744.19;;;10.76;91.70
17230;BME280;8731;50.364;8.958;2023-05-15T01:27:23;99733.88;;;10.74;91.90
17230;BME280;8731;50.364;8.958;2023-05-15T01:31:54;99727.66;;;10.81;89.89
17230;BME280;8731;50.364;8.958;2023-05-15T01:36:25;99728.28;;;10.79;88.53
17230;BME280;8731;50.364;8.958;2023-05-15T01:40:56;99730.31;;;10.72;88.87
17230;BME280;8731;50.364;8.958;2023-05-15T01:45:26;99727.91;;;10.84;89.14
17230;BME280;8731;50.364;8.958;2023-05-15T01:49:52;99730.41;;;10.64;90.14
17230;BME280;8731;50.364;8.958;2023-05-15T01:54:17;99735.69;;;10.36;93.62
17230;BME280;8731;50.364;8.958;2023-05-15T01:58:41;99734.47;;;10.52;90.63
17230;BME280;8731;50.364;8.958;2023-05-15T02:03:07;99729.13;;;10.59;89.04
17230;BME280;8731;50.364;8.958;2023-05-15T02:07:30;99731.81;;;10.60;87.99
17230;BME280;8731;50.364;8.958;2023-05-15T02:11:54;99720.94;;;10.32;90.51
17230;BME280;8731;50.364;8.958;2023-05-15T02:16:18;99728.19;;;10.09;91.96
17230;BME280;8731;50.364;8.958;2023-05-15T02:20:42;99731.47;;;9.98;92.42
17230;BME280;8731;50.364;8.958;2023-05-15T02:25:05;99728.69;;;10.24;90.11
17230;BME280;8731;50.364;8.958;2023-05-15T02:29:33;99718.75;;;10.27;88.63
17230;BME280;8731;50.364;8.958;2023-05-15T02:34:09;99719.09;;;9.92;91.12
17230;BME280;8731;50.364;8.958;2023-05-15T02:38:44;99714.75;;;9.91;91.03
17230;BME280;8731;50.364;8.958;2023-05-15T02:43:09;99722.75;;;9.85;91.24
17230;BME280;8731;50.364;8.958;2023-05-15T02:47:33;99716.47;;;10.01;89.07
17230;BME280;8731;50.364;8.958;2023-05-15T02:51:56;99704.25;;;9.97;88.65
17230;BME280;8731;50.364;8.958;2023-05-15T02:56:20;99713.59;;;9.88;89.45
17230;BME280;8731;50.364;8.958;2023-05-15T03:00:43;99715.09;;;9.75;90.77
17230;BME280;8731;50.364;8.958;2023-05-15T03:05:06;99724.47;;;9.29;94.90
17230;BME280;8731;50.364;8.958;2023-05-15T03:09:29;99725.69;;;9.42;94.29
17230;BME280;8731;50.364;8.958;2023-05-15T03:13:53;99720.34;;;9.39;94.97
17230;BME280;8731;50.364;8.958;2023-05-15T03:18:16;99718.53;;;9.57;92.74
17230;BME280;8731;50.364;8.958;2023-05-15T03:22:39;99713.50;;;9.67;91.11
17230;BME280;8731;50.364;8.958;2023-05-15T03:27:01;99711.44;;;9.63;91.04
17230;BME280;8731;50.364;8.958;2023-05-15T03:31:25;99710.56;;;9.63;90.31
17230;BME280;8731;50.364;8.958;2023-05-15T03:35:48;99704.19;;;9.39;93.01
17230;BME280;8731;50.364;8.958;2023-05-15T03:40:13;99717.03;;;9.03;94.05
17230;BME280;8731;50.364;8.958;2023-05-15T03:44:35;99716.25;;;8.85;95.21
17230;BME280;8731;50.364;8.958;2023-05-15T03:48:59;99718.50;;;8.54;95.76
17230;BME280;8731;50.364;8.958;2023-05-15T03:53:22;99722.78;;;8.64;97.88
17230;BME280;8731;50.364;8.958;2023-05-15T03:57:46;99721.75;;;9.08;93.38
17230;BME280;8731;50.364;8.958;2023-05-15T04:02:09;99713.94;;;9.15;91.53
17230;BME280;8731;50.364;8.958;2023-05-15T04:06:33;99710.03;;;9.19;91.28
17230;BME280;8731;50.364;8.958;2023-05-15T04:10:55;99709.41;;;9.21;92.10
17230;BME280;8731;50.364;8.958;2023-05-15T04:15:19;99716.75;;;9.18;92.86
17230;BME280;8731;50.364;8.958;2023-05-15T04:19:42;99716.41;;;9.05;94.93
17230;BME280;8731;50.364;8.958;2023-05-15T04:24:08;99718.09;;;8.96;96.53
17230;BME280;8731;50.364;8.958;2023-05-15T04:28:31;99715.06;;;8.81;99.13
17230;BME280;8731;50.364;8.958;2023-05-15T04:32:53;99714.53;;;8.94;97.57
17230;BME280;8731;50.364;8.958;2023-05-15T04:37:16;99719.56;;;9.03;96.97
17230;BME280;8731;50.364;8.958;2023-05-15T04:41:39;99731.03;;;9.08;97.24
17230;BME280;8731;50.364;8.958;2023-05-15T04:46:02;99718.75;;;9.31;96.13
17230;BME280;8731;50.364;8.958;2023-05-15T04:50:25;99715.09;;;9.75;96.90
17230;BME280;8731;50.364;8.958;2023-05-15T04:54:47;99721.94;;;10.24;94.95
17230;BME280;8731;50.364;8.958;2023-05-15T04:59:13;99718.34;;;10.71;92.42
17230;BME280;8731;50.364;8.958;2023-05-15T05:03:37;99715.94;;;11.03;91.23
17230;BME280;8731;50.364;8.958;2023-05-15T05:07:59;99720.84;;;11.83;88.94
17230;BME280;8731;50.364;8.958;2023-05-15T05:12:22;99714.19;;;12.17;87.16
17230;BME280;8731;50.364;8.958;2023-05-15T05:16:45;99709.44;;;12.99;85.73
17230;BME280;8731;50.364;8.958;2023-05-15T05:21:08;99705.09;;;13.43;82.76
17230;BME280;8731;50.364;8.958;2023-05-15T05:25:30;99716.03;;;13.76;83.13
17230;BME280;8731;50.364;8.958;2023-05-15T05:29:52;99719.69;;;14.03;81.27
17230;BME280;8731;50.364;8.958;2023-05-15T05:34:17;99708.44;;;14.86;80.33
17230;BME280;8731;50.364;8.958;2023-05-15T05:38:40;99716.66;;;15.31;77.44
17230;BME280;8731;50.364;8.958;2023-05-15T05:43:03;99715.44;;;16.04;76.51
17230;BME280;8731;50.364;8.958;2023-05-15T05:47:26;99716.59;;;16.36;75.66
17230;BME280;8731;50.364;8.958;2023-05-15T05:51:50;99718.41;;;15.71;73.26
17230;BME280;8731;50.364;8.958;2023-05-15T05:56:12;99712.19;;;15.93;73.81
17230;BME280;8731;50.364;8.958;2023-05-15T06:00:35;99710.41;;;15.92;73.55
17230;BME280;8731;50.364;8.958;2023-05-15T06:04:57;99703.63;;;17.33;72.06
17230;BME280;8731;50.364;8.958;2023-05-15T06:09:21;99701.78;;;18.05;70.02
17230;BME280;8731;50.364;8.958;2023-05-15T06:13:43;99701.81;;;17.91;68.56
17230;BME280;8731;50.364;8.958;2023-05-15T06:18:06;99705.72;;;17.99;68.81
17230;BME280;8731;50.364;8.958;2023-05-15T06:22:28;99692.00;;;18.94;65.81
17230;BME280;8731;50.364;8.958;2023-05-15T06:26:53;99690.81;;;19.22;66.23
17230;BME280;8731;50.364;8.958;2023-05-15T06:31:16;99692.53;;;19.73;64.83
17230;BME280;8731;50.364;8.958;2023-05-15T06:35:38;99687.22;;;20.25;64.75
17230;BME280;8731;50.364;8.958;2023-05-15T06:40:01;99692.53;;;20.46;62.22
17230;BME280;8731;50.364;8.958;2023-05-15T06:44:26;99693.19;;;21.38;60.97
17230;BME280;8731;50.364;8.958;2023-05-15T06:48:48;99701.03;;;21.01;59.47
17230;BME280;8731;50.364;8.958;2023-05-15T06:53:10;99691.06;;;21.71;58.84
17230;BME280;8731;50.364;8.958;2023-05-15T06:57:33;99682.59;;;22.19;59.70
17230;BME280;8731;50.364;8.958;2023-05-15T07:01:57;99680.78;;;21.52;54.06
17230;BME280;8731;50.364;8.958;2023-05-15T07:06:19;99680.22;;;22.02;53.31
17230;BME280;8731;50.364;8.958;2023-05-15T07:10:42;99682.50;;;21.11;54.57
17230;BME280;8731;50.364;8.958;2023-05-15T07:15:05;99675.72;;;23.13;52.00
17230;BME280;8731;50.364;8.958;2023-05-15T07:19:29;99672.22;;;22.87;53.45
17230;BME280;8731;50.364;8.958;2023-05-15T07:23:52;99665.38;;;22.21;50.24
17230;BME280;8731;50.364;8.958;2023-05-15T07:28:14;99660.13;;;23.64;49.58
17230;BME280;8731;50.364;8.958;2023-05-15T07:32:36;99659.28;;;23.92;48.07
17230;BME280;8731;50.364;8.958;2023-05-15T07:37:00;99657.84;;;24.60;47.08
17230;BME280;8731;50.364;8.958;2023-05-15T07:41:23;99654.34;;;25.21;47.07
17230;BME280;8731;50.364;8.958;2023-05-15T07:45:45;99645.97;;;25.33;48.16
17230;BME280;8731;50.364;8.958;2023-05-15T07:50:09;99642.72;;;25.43;45.40
17230;BME280;8731;50.364;8.958;2023-05-15T07:54:32;99646.06;;;25.72;43.99
17230;BME280;8731;50.364;8.958;2023-05-15T07:58:55;99645.47;;;25.13;44.34
17230;BME280;8731;50.364;8.958;2023-05-15T08:03:17;99640.75;;;25.67;43.67
17230;BME280;8731;50.364;8.958;2023-05-15T08:07:39;99634.38;;;25.22;44.18
17230;BME280;8731;50.364;8.958;2023-05-15T08:12:17;99630.25;;;25.66;44.39
17230;BME280;8731;50.364;8.958;2023-05-15T08:16:41;99631.34;;;26.52;43.61
17230;BME280;8731;50.364;8.958;2023-05-15T08:21:03;99629.28;;;25.26;42.48
17230;BME280;8731;50.364;8.958;2023-05-15T08:25:26;99634.50;;;26.38;43.04
17230;BME280;8731;50.364;8.958;2023-05-15T08:29:49;99621.03;;;26.19;44.46
17230;BME280;8731;50.364;8.958;2023-05-15T08:34:14;99626.28;;;26.61;43.46
17230;BME280;8731;50.364;8.958;2023-05-15T08:38:36;99624.53;;;27.59;43.91
17230;BME280;8731;50.364;8.958;2023-05-15T08:43:02;99618.81;;;27.28;41.72
17230;BME280;8731;50.364;8.958;2023-05-15T08:47:28;99614.47;;;27.29;40.25
17230;BME280;8731;50.364;8.958;2023-05-15T08:51:53;99609.06;;;27.71;42.86
17230;BME280;8731;50.364;8.958;2023-05-15T08:56:17;99609.91;;;27.68;40.68
17230;BME280;8731;50.364;8.958;2023-05-15T09:00:40;99612.47;;;28.27;40.46
17230;BME280;8731;50.364;8.958;2023-05-15T09:05:05;99606.97;;;28.10;41.91
17230;BME280;8731;50.364;8.958;2023-05-15T09:09:29;99600.78;;;29.69;42.00
17230;BME280;8731;50.364;8.958;2023-05-15T09:13:56;99608.41;;;28.52;39.63
17230;BME280;8731;50.364;8.958;2023-05-15T09:18:19;99609.53;;;29.73;38.03
17230;BME280;8731;50.364;8.958;2023-05-15T09:22:43;99605.03;;;29.56;39.82
17230;BME280;8731;50.364;8.958;2023-05-15T09:27:06;99595.53;;;29.69;38.26
17230;BME280;8731;50.364;8.958;2023-05-15T09:31:30;99585.25;;;28.90;39.19
17230;BME280;8731;50.364;8.958;2023-05-15T09:35:52;99586.47;;;29.32;37.41
17230;BME280;8731;50.364;8.958;2023-05-15T09:40:17;99588.97;;;27.17;38.08
17230;BME280;8731;50.364;8.958;2023-05-15T09:44:40;99579.63;;;29.48;37.92
17230;BME280;8731;50.364;8.958;2023-05-15T09:49:04;99582.69;;;28.98;37.19
17230;BME280;8731;50.364;8.958;2023-05-15T09:53:27;99572.13;;;30.06;36.02
17230;BME280;8731;50.364;8.958;2023-05-15T09:58:06;99565.00;;;29.89;38.49
17230;BME280;8731;50.364;8.958;2023-05-15T10:02:30;99571.78;;;29.52;37.11
17230;BME280;8731;50.364;8.958;2023-05-15T10:06:53;99569.41;;;28.84;35.51
17230;BME280;8731;50.364;8.958;2023-05-15T10:11:16;99553.78;;;30.15;35.35
17230;BME280;8731;50.364;8.958;2023-05-15T10:15:41;99559.09;;;30.36;35.24
17230;BME280;8731;50.364;8.958;2023-05-15T10:20:06;99557.69;;;28.47;35.57
17230;BME280;8731;50.364;8.958;2023-05-15T10:24:29;99557.72;;;28.50;36.03
17230;BME280;8731;50.364;8.958;2023-05-15T10:28:53;99553.94;;;29.10;36.96
17230;BME280;8731;50.364;8.958;2023-05-15T10:33:19;99554.56;;;30.02;37.36
17230;BME280;8731;50.364;8.958;2023-05-15T10:37:44;99545.09;;;30.33;35.01
17230;BME280;8731;50.364;8.958;2023-05-15T10:42:09;99537.16;;;30.23;39.15
17230;BME280;8731;50.364;8.958;2023-05-15T10:46:34;99530.47;;;29.28;33.12
17230;BME280;8731;50.364;8.958;2023-05-15T10:50:59;99525.03;;;30.71;34.86
17230;BME280;8731;50.364;8.958;2023-05-15T10:55:22;99521.50;;;28.96;33.76
17230;BME280;8731;50.364;8.958;2023-05-15T10:59:44;99521.25;;;29.90;34.65
17230;BME280;8731;50.364;8.958;2023-05-15T11:04:09;99527.66;;;29.02;35.83
17230;BME280;8731;50.364;8.958;2023-05-15T11:08:34;99532.84;;;28.92;37.64
17230;BME280;8731;50.364;8.958;2023-05-15T11:12:57;99537.50;;;28.37;39.36
17230;BME280;8731;50.364;8.958;2023-05-15T11:17:22;99550.59;;;26.22;41.48
17230;BME280;8731;50.364;8.958;2023-05-15T11:27:53;99585.28;;;24.11;43.77
17230;BME280;8731;50.364;8.958;2023-05-15T11:32:39;99587.84;;;23.81;42.92
17230;BME280;8731;50.364;8.958;2023-05-15T11:37:08;99591.06;;;21.76;46.49
17230;BME280;8731;50.364;8.958;2023-05-15T11:41:38;99590.47;;;23.27;44.60
17230;BME280;8731;50.364;8.958;2023-05-15T11:46:08;99587.41;;;23.13;45.32
17230;BME280;8731;50.364;8.958;2023-05-15T11:50:34;99593.72;;;21.56;46.57
17230;BME280;8731;50.364;8.958;2023-05-15T11:54:59;99587.72;;;21.15;47.10
17230;BME280;8731;50.364;8.958;2023-05-15T11:59:25;99576.41;;;20.92;46.91
17230;BME280;8731;50.364;8.958;2023-05-15T12:03:50;99573.06;;;22.74;44.48
17230;BME280;8731;50.364;8.958;2023-05-15T12:08:13;99579.63;;;20.46;45.18
17230;BME280;8731;50.364;8.958;2023-05-15T12:12:38;99566.25;;;20.97;45.41
17230;BME280;8731;50.364;8.958;2023-05-15T12:17:02;99562.19;;;21.45;44.95
17230;BME280;8731;50.364;8.958;2023-05-15T12:21:26;99557.00;;;21.90;45.78
17230;BME280;8731;50.364;8.958;2023-05-15T12:25:51;99558.22;;;22.22;45.80
17230;BME280;8731;50.364;8.958;2023-05-15T12:30:18;99544.78;;;22.32;45.47
17230;BME280;8731;50.364;8.958;2023-05-15T12:34:40;99541.75;;;22.45;43.07
17230;BME280;8731;50.364;8.958;2023-05-15T12:39:09;99540.38;;;22.29;45.08
17230;BME280;8731;50.364;8.958;2023-05-15T12:43:32;99531.28;;;22.67;44.51
17230;BME280;8731;50.364;8.958;2023-05-15T12:47:57;99538.81;;;22.11;43.19
17230;BME280;8731;50.364;8.958;2023-05-15T12:52:20;99533.09;;;22.94;42.15
17230;BME280;8731;50.364;8.958;2023-05-15T12:56:44;99532.94;;;22.40;40.53
17230;BME280;8731;50.364;8.958;2023-05-15T13:01:08;99528.63;;;22.90;39.80
17230;BME280;8731;50.364;8.958;2023-05-15T13:05:32;99525.91;;;23.12;40.83
17230;BME280;8731;50.364;8.958;2023-05-15T13:10:07;99526.47;;;22.78;43.51
17230;BME280;8731;50.364;8.958;2023-05-15T13:14:35;99516.50;;;23.71;40.65
17230;BME280;8731;50.364;8.958;2023-05-15T13:18:57;99512.59;;;23.57;41.19
17230;BME280;8731;50.364;8.958;2023-05-15T13:23:21;99511.03;;;24.22;41.49
17230;BME280;8731;50.364;8.958;2023-05-15T13:27:44;99505.06;;;23.95;42.15
17230;BME280;8731;50.364;8.958;2023-05-15T13:32:08;99504.56;;;23.49;42.25
17230;BME280;8731;50.364;8.958;2023-05-15T13:36:31;99516.41;;;23.41;43.89
17230;BME280;8731;50.364;8.958;2023-05-15T13:40:53;99516.38;;;23.40;44.00
17230;BME280;8731;50.364;8.958;2023-05-15T13:45:15;99511.47;;;23.49;43.38
17230;BME280;8731;50.364;8.958;2023-05-15T13:49:39;99496.13;;;23.56;43.49
17230;BME280;8731;50.364;8.958;2023-05-15T13:54:02;99500.28;;;23.51;44.42
17230;BME280;8731;50.364;8.958;2023-05-15T13:58:25;99511.66;;;23.55;44.22
17230;BME280;8731;50.364;8.958;2023-05-15T14:02:47;99520.59;;;23.09;46.72
17230;BME280;8731;50.364;8.958;2023-05-15T14:07:11;99528.34;;;23.35;46.10
17230;BME280;8731;50.364;8.958;2023-05-15T14:11:34;99525.47;;;23.25;44.78
17230;BME280;8731;50.364;8.958;2023-05-15T14:15:56;99532.78;;;23.39;45.04
17230;BME280;8731;50.364;8.958;2023-05-15T14:20:23;99545.06;;;23.16;45.62
17230;BME280;8731;50.364;8.958;2023-05-15T14:24:47;99542.53;;;22.92;46.71
17230;BME280;8731;50.364;8.958;2023-05-15T14:29:10;99534.78;;;23.19;46.07
17230;BME280;8731;50.364;8.958;2023-05-15T14:33:32;99536.38;;;22.64;47.29
17230;BME280;8731;50.364;8.958;2023-05-15T14:37:55;99545.38;;;22.49;47.40
17230;BME280;8731;50.364;8.958;2023-05-15T14:42:20;99558.13;;;22.19;46.96
17230;BME280;8731;50.364;8.958;2023-05-15T14:46:45;99566.72;;;22.42;48.14
17230;BME280;8731;50.364;8.958;2023-05-15T14:51:08;99578.75;;;22.16;49.19
17230;BME280;8731;50.364;8.958;2023-05-15T14:55:30;99576.06;;;22.36;49.21
17230;BME280;8731;50.364;8.958;2023-05-15T14:59:54;99575.44;;;21.75;49.84
17230;BME280;8731;50.364;8.958;2023-05-15T15:04:18;99574.81;;;21.81;49.85
17230;BME280;8731;50.364;8.958;2023-05-15T15:08:40;99575.34;;;21.72;50.07
17230;BME280;8731;50.364;8.958;2023-05-15T15:13:03;99570.88;;;21.68;50.60
17230;BME280;8731;50.364;8.958;2023-05-15T15:17:27;99567.72;;;21.76;50.50
17230;BME280;8731;50.364;8.958;2023-05-15T15:21:50;99567.19;;;21.40;51.37
17230;BME280;8731;50.364;8.958;2023-05-15T15:26:12;99563.63;;;21.59;50.84
17230;BME280;8731;50.364;8.958;2023-05-15T15:30:35;99563.44;;;21.32;51.13
17230;BME280;8731;50.364;8.958;2023-05-15T15:34:59;99553.53;;;21.03;51.52
17230;BME280;8731;50.364;8.958;2023-05-15T15:39:22;99557.53;;;21.15;51.92
17230;BME280;8731;50.364;8.958;2023-05-15T15:43:45;99546.22;;;20.93;52.63
17230;BME280;8731;50.364;8.958;2023-05-15T15:48:07;99564.41;;;21.15;52.23
17230;BME280;8731;50.364;8.958;2023-05-15T15:52:31;99566.41;;;20.60;53.24
17230;BME280;8731;50.364;8.958;2023-05-15T15:56:54;99577.94;;;20.29;54.14
17230;BME280;8731;50.364;8.958;2023-05-15T16:01:17;99577.41;;;20.75;53.19
17230;BME280;8731;50.364;8.958;2023-05-15T16:05:40;99582.41;;;20.91;52.77
17230;BME280;8731;50.364;8.958;2023-05-15T16:10:06;99587.63;;;20.72;53.84
17230;BME280;8731;50.364;8.958;2023-05-15T16:14:30;99591.63;;;20.27;53.86
17230;BME280;8731;50.364;8.958;2023-05-15T16:18:53;99580.88;;;20.56;53.14
17230;BME280;8731;50.364;8.958;2023-05-15T16:23:15;99581.72;;;20.55;52.45
17230;BME280;8731;50.364;8.958;2023-05-15T16:27:41;99590.75;;;20.26;52.17
17230;BME280;8731;50.364;8.958;2023-05-15T16:32:05;99591.47;;;20.41;51.83
17230;BME280;8731;50.364;8.958;2023-05-15T16:36:34;99584.75;;;20.27;51.76
17230;BME280;8731;50.364;8.958;2023-05-15T16:40:56;99586.19;;;20.20;51.40
17230;BME280;8731;50.364;8.958;2023-05-15T16:45:21;99585.03;;;20.14;51.53
17230;BME280;8731;50.364;8.958;2023-05-15T16:49:43;99589.66;;;20.02;52.10
17230;BME280;8731;50.364;8.958;2023-05-15T16:54:06;99589.22;;;19.92;52.45
17230;BME280;8731;50.364;8.958;2023-05-15T16:58:28;99590.66;;;20.05;52.72
17230;BME280;8731;50.364;8.958;2023-05-15T17:02:53;99592.81;;;19.77;52.94
17230;BME280;8731;50.364;8.958;2023-05-15T17:07:15;99591.41;;;20.03;52.25
17230;BME280;8731;50.364;8.958;2023-05-15T17:11:38;99593.25;;;20.05;52.05
17230;BME280;8731;50.364;8.958;2023-05-15T17:16:00;99595.09;;;19.71;52.42
17230;BME280;8731;50.364;8.958;2023-05-15T17:20:24;99593.03;;;19.46;53.20
17230;BME280;8731;50.364;8.958;2023-05-15T17:24:48;99590.44;;;19.28;54.14
17230;BME280;8731;50.364;8.958;2023-05-15T17:29:12;99605.31;;;18.98;55.54
17230;BME280;8731;50.364;8.958;2023-05-15T17:33:34;99606.22;;;19.34;55.12
17230;BME280;8731;50.364;8.958;2023-05-15T17:37:58;99608.06;;;19.19;55.68
17230;BME280;8731;50.364;8.958;2023-05-15T17:42:21;99610.78;;;19.40;54.66
17230;BME280;8731;50.364;8.958;2023-05-15T17:46:46;99605.88;;;19.44;54.54
17230;BME280;8731;50.364;8.958;2023-05-15T17:51:13;99620.81;;;19.33;55.20
17230;BME280;8731;50.364;8.958;2023-05-15T17:55:39;99612.47;;;19.39;54.94
17230;BME280;8731;50.364;8.958;2023-05-15T18:00:02;99611.09;;;19.28;55.37
17230;BME280;8731;50.364;8.958;2023-05-15T18:04:32;99613.06;;;19.16;55.29
17230;BME280;8731;50.364;8.958;2023-05-15T18:08:55;99624.84;;;19.11;55.66
17230;BME280;8731;50.364;8.958;2023-05-15T18:13:22;99639.66;;;19.15;55.93
17230;BME280;8731;50.364;8.958;2023-05-15T18:17:54;99640.34;;;18.77;58.83
17230;BME280;8731;50.364;8.958;2023-05-15T18:22:17;99640.22;;;18.91;58.64
17230;BME280;8731;50.364;8.958;2023-05-15T18:26:40;99645.84;;;19.00;57.96
17230;BME280;8731;50.364;8.958;2023-05-15T18:31:03;99656.03;;;18.97;58.12
17230;BME280;8731;50.364;8.958;2023-05-15T18:35:29;99667.25;;;18.18;61.90
17230;BME280;8731;50.364;8.958;2023-05-15T18:39:52;99671.59;;;18.19;61.65
17230;BME280;8731;50.364;8.958;2023-05-15T18:44:16;99673.91;;;18.46;60.56
17230;BME280;8731;50.364;8.958;2023-05-15T18:48:40;99694.44;;;18.28;60.67
17230;BME280;8731;50.364;8.958;2023-05-15T18:53:02;99690.66;;;18.37;60.83
17230;BME280;8731;50.364;8.958;2023-05-15T18:57:24;99691.19;;;18.16;60.89
17230;BME280;8731;50.364;8.958;2023-05-15T19:01:47;99694.63;;;18.16;60.54
17230;BME280;8731;50.364;8.958;2023-05-15T19:06:10;99697.13;;;18.15;60.59
17230;BME280;8731;50.364;8.958;2023-05-15T19:10:38;99699.47;;;18.10;61.28
17230;BME280;8731;50.364;8.958;2023-05-15T19:15:01;99701.97;;;18.08;61.46
17230;BME280;8731;50.364;8.958;2023-05-15T19:19:23;99707.97;;;17.04;70.22
17230;BME280;8731;50.364;8.958;2023-05-15T19:23:55;99712.34;;;17.79;65.45
17230;BME280;8731;50.364;8.958;2023-05-15T19:28:21;99721.13;;;17.53;67.35
17230;BME280;8731;50.364;8.958;2023-05-15T19:32:44;99713.47;;;17.69;65.52
17230;BME280;8731;50.364;8.958;2023-05-15T19:37:06;99710.72;;;17.81;64.60
17230;BME280;8731;50.364;8.958;2023-05-15T19:41:33;99702.47;;;17.72;64.96
17230;BME280;8731;50.364;8.958;2023-05-15T19:45:55;99718.59;;;17.25;67.79
17230;BME280;8731;50.364;8.958;2023-05-15T19:50:18;99729.38;;;17.33;67.48
17230;BME280;8731;50.364;8.958;2023-05-15T19:54:41;99736.09;;;17.16;67.20
17230;BME280;8731;50.364;8.958;2023-05-15T19:59:06;99731.59;;;16.99;67.94
17230;BME280;8731;50.364;8.958;2023-05-15T20:03:28;99740.50;;;17.18;65.94
17230;BME280;8731;50.364;8.958;2023-05-15T20:07:52;99740.06;;;17.26;65.88
17230;BME280;8731;50.364;8.958;2023-05-15T20:12:15;99749.03;;;17.17;66.06
17230;BME280;8731;50.364;8.958;2023-05-15T20:16:39;99753.47;;;16.64;71.00
17230;BME280;8731;50.364;8.958;2023-05-15T20:21:01;99747.19;;;16.87;69.22
17230;BME280;8731;50.364;8.958;2023-05-15T20:25:24;99750.31;;;16.55;71.82
17230;BME280;8731;50.364;8.958;2023-05-15T20:29:47;99759.72;;;16.68;70.80
17230;BME280;8731;50.364;8.958;2023-05-15T20:34:11;99756.97;;;16.93;69.45
17230;BME280;8731;50.364;8.958;2023-05-15T20:38:34;99756.09;;;16.79;70.02
17230;BME280;8731;50.364;8.958;2023-05-15T20:42:57;99754.13;;;16.88;69.51
17230;BME280;8731;50.364;8.958;2023-05-15T20:47:20;99751.47;;;16.86;69.28
17230;BME280;8731;50.364;8.958;2023-05-15T20:51:44;99753.94;;;16.85;69.85
17230;BME280;8731;50.364;8.958;2023-05-15T20:56:07;99760.50;;;16.80;69.31
17230;BME280;8731;50.364;8.958;2023-05-15T21:00:30;99756.72;;;16.75;69.52
17230;BME280;8731;50.364;8.958;2023-05-15T21:04:54;99769.16;;;16.27;73.29
17230;BME280;8731;50.364;8.958;2023-05-15T21:09:18;99768.19;;;16.12;74.84
17230;BME280;8731;50.364;8.958;2023-05-15T21:13:40;99773.59;;;16.30;73.10
17230;BME280;8731;50.364;8.958;2023-05-15T21:18:03;99772.56;;;16.54;71.47
17230;BME280;8731;50.364;8.958;2023-05-15T21:22:26;99791.69;;;15.54;77.25
17230;BME280;8731;50.364;8.958;2023-05-15T21:26:50;99776.75;;;15.73;76.17
17230;BME280;8731;50.364;8.958;2023-05-15T21:31:13;99777.34;;;16.09;74.01
17230;BME280;8731;50.364;8.958;2023-05-15T21:35:35;99779.56;;;16.16;73.25
17230;BME280;8731;50.364;8.958;2023-05-15T21:39:59;99778.94;;;16.20;72.65
17230;BME280;8731;50.364;8.958;2023-05-15T21:44:23;99779.03;;;15.82;76.95
17230;BME280;8731;50.364;8.958;2023-05-15T21:48:46;99784.16;;;15.82;77.40
17230;BME280;8731;50.364;8.958;2023-05-15T21:53:09;99786.13;;;15.34;82.05
17230;BME280;8731;50.364;8.958;2023-05-15T21:57:31;99788.81;;;15.74;78.29
17230;BME280;8731;50.364;8.958;2023-05-15T22:01:55;99795.06;;;15.91;77.02
17230;BME280;8731;50.364;8.958;2023-05-15T22:06:18;99790.31;;;15.97;76.34
17230;BME280;8731;50.364;8.958;2023-05-15T22:10:40;99783.09;;;15.91;76.49
17230;BME280;8731;50.364;8.958;2023-05-15T22:15:03;99792.59;;;15.54;80.55
17230;BME280;8731;50.364;8.958;2023-05-15T22:19:28;99790.19;;;15.82;77.04
17230;BME280;8731;50.364;8.958;2023-05-15T22:23:51;99797.41;;;16.01;75.15
17230;BME280;8731;50.364;8.958;2023-05-15T22:28:14;99803.66;;;15.91;75.73
17230;BME280;8731;50.364;8.958;2023-05-15T22:32:37;99804.25;;;15.87;75.52
17230;BME280;8731;50.364;8.958;2023-05-15T22:37:01;99811.53;;;15.56;78.36
17230;BME280;8731;50.364;8.958;2023-05-15T22:41:25;99808.38;;;15.47;78.63
17230;BME280;8731;50.364;8.958;2023-05-15T22:45:47;99808.38;;;15.47;78.63
17230;BME280;8731;50.364;8.958;2023-05-15T22:50:10;99818.81;;;15.50;77.13
17230;BME280;8731;50.364;8.958;2023-05-15T22:54:34;99819.25;;;15.31;78.59
17230;BME280;8731;50.364;8.958;2023-05-15T22:58:57;99823.66;;;15.21;77.68
17230;BME280;8731;50.364;8.958;2023-05-15T23:03:20;99816.88;;;15.21;76.49
17230;BME280;8731;50.364;8.958;2023-05-15T23:07:45;99815.41;;;14.52;80.38
17230;BME280;8731;50.364;8.958;2023-05-15T23:12:09;99826.19;;;14.36;81.17
17230;BME280;8731;50.364;8.958;2023-05-15T23:16:31;99823.31;;;14.55;78.46
17230;BME280;8731;50.364;8.958;2023-05-15T23:20:54;99832.66;;;14.31;79.16
17230;BME280;8731;50.364;8.958;2023-05-15T23:25:17;99842.22;;;14.33;78.52
17230;BME280;8731;50.364;8.958;2023-05-15T23:29:41;99842.66;;;14.04;80.73
17230;BME280;8731;50.364;8.958;2023-05-15T23:34:04;99843.31;;;14.37;77.65
17230;BME280;8731;50.364;8.958;2023-05-15T23:38:27;99842.44;;;14.13;78.73
17230;BME280;8731;50.364;8.958;2023-05-15T23:42:49;99846.59;;;13.66;82.93
17230;BME280;8731;50.364;8.958;2023-05-15T23:47:13;99846.59;;;13.66;82.93